sensor_id;sensor_type;location;lat;lon;timestamp;P1;durP1;ratioP1;P2;durP2;ratioP2
32152;SDS011;18656;50.580;11.392;2023-08-07T00:00:04;0.90;;;0.90;;
32152;SDS011;18656;50.580;11.392;2023-08-07T00:02:32;0.85;;;0.85;;
32152;SDS011;18656;50.580;11.392;2023-08-07T00:04:59;1.30;;;0.85;;
32152;SDS011;18656;50.580;11.392;2023-08-07T00:07:26;1.00;;;1.00;;
32152;SDS011;18656;50.580;11.392;2023-08-07T00:09:53;1.55;;;0.80;;
32152;SDS011;18656;50.580;11.392;2023-08-07T00:12:21;1.00;;;1.00;;
32152;SDS011;18656;50.580;11.392;2023-08-07T00:14:49;1.05;;;0.95;;
32152;SDS011;18656;50.580;11.392;2023-08-07T00:17:17;0.90;;;0.90;;
32152;SDS011;18656;50.580;11.392;2023-08-07T00:19:44;3.03;;;1.00;;
32152;SDS011;18656;50.580;11.392;2023-08-07T00:22:11;1.20;;;1.10;;
32152;SDS011;18656;50.580;11.392;2023-08-07T00:24:38;1.40;;;1.30;;
32152;SDS011;18656;50.580;11.392;2023-08-07T00:27:05;1.40;;;1.40;;
32152;SDS011;18656;50.580;11.392;2023-08-07T00:29:36;1.25;;;1.10;;
32152;SDS011;18656;50.580;11.392;2023-08-07T00:32:03;1.30;;;1.20;;
32152;SDS011;18656;50.580;11.392;2023-08-07T00:34:30;1.10;;;1.00;;
32152;SDS011;18656;50.580;11.392;2023-08-07T00:36:58;2.97;;;1.10;;
32152;SDS011;18656;50.580;11.392;2023-08-07T00:39:25;1.42;;;1.33;;
32152;SDS011;18656;50.580;11.392;2023-08-07T00:41:53;1.20;;;1.20;;
32152;SDS011;18656;50.580;11.392;2023-08-07T00:44:20;3.78;;;1.50;;
32152;SDS011;18656;50.580;11.392;2023-08-07T00:46:49;0.90;;;0.90;;
32152;SDS011;18656;50.580;11.392;2023-08-07T00:49:17;2.90;;;1.30;;
32152;SDS011;18656;50.580;11.392;2023-08-07T00:51:45;1.75;;;1.50;;
32152;SDS011;18656;50.580;11.392;2023-08-07T00:54:15;1.13;;;1.08;;
32152;SDS011;18656;50.580;11.392;2023-08-07T00:56:42;1.73;;;1.27;;
32152;SDS011;18656;50.580;11.392;2023-08-07T00:59:09;1.30;;;1.25;;
32152;SDS011;18656;50.580;11.392;2023-08-07T01:01:37;1.45;;;1.35;;
32152;SDS011;18656;50.580;11.392;2023-08-07T01:04:04;0.98;;;0.98;;
32152;SDS011;18656;50.580;11.392;2023-08-07T01:06:31;1.15;;;1.15;;
32152;SDS011;18656;50.580;11.392;2023-08-07T01:08:58;1.35;;;0.88;;
32152;SDS011;18656;50.580;11.392;2023-08-07T01:17:01;5.88;;;1.45;;
32152;SDS011;18656;50.580;11.392;2023-08-07T01:19:30;2.30;;;1.23;;
32152;SDS011;18656;50.580;11.392;2023-08-07T01:22:05;1.48;;;1.38;;
32152;SDS011;18656;50.580;11.392;2023-08-07T01:24:33;4.10;;;1.58;;
32152;SDS011;18656;50.580;11.392;2023-08-07T01:27:02;1.40;;;1.40;;
32152;SDS011;18656;50.580;11.392;2023-08-07T01:29:36;1.10;;;1.10;;
32152;SDS011;18656;50.580;11.392;2023-08-07T01:32:06;2.05;;;1.10;;
32152;SDS011;18656;50.580;11.392;2023-08-07T01:34:34;1.33;;;1.33;;
32152;SDS011;18656;50.580;11.392;2023-08-07T01:37:03;9.35;;;1.65;;
32152;SDS011;18656;50.580;11.392;2023-08-07T01:39:30;1.13;;;0.90;;
32152;SDS011;18656;50.580;11.392;2023-08-07T01:41:58;0.85;;;0.85;;
32152;SDS011;18656;50.580;11.392;2023-08-07T01:44:26;0.90;;;0.90;;
32152;SDS011;18656;50.580;11.392;2023-08-07T01:46:54;1.75;;;1.00;;
32152;SDS011;18656;50.580;11.392;2023-08-07T01:49:21;0.90;;;0.90;;
32152;SDS011;18656;50.580;11.392;2023-08-07T01:51:48;0.93;;;0.90;;
32152;SDS011;18656;50.580;11.392;2023-08-07T01:54:16;1.98;;;0.93;;
32152;SDS011;18656;50.580;11.392;2023-08-07T01:56:43;3.45;;;1.50;;
32152;SDS011;18656;50.580;11.392;2023-08-07T01:59:10;1.20;;;1.10;;
32152;SDS011;18656;50.580;11.392;2023-08-07T02:01:37;2.35;;;0.90;;
32152;SDS011;18656;50.580;11.392;2023-08-07T02:04:05;1.48;;;1.00;;
32152;SDS011;18656;50.580;11.392;2023-08-07T02:06:32;0.90;;;0.90;;
32152;SDS011;18656;50.580;11.392;2023-08-07T02:08:59;3.35;;;1.20;;
32152;SDS011;18656;50.580;11.392;2023-08-07T02:11:26;1.20;;;1.17;;
32152;SDS011;18656;50.580;11.392;2023-08-07T02:13:53;3.95;;;1.17;;
32152;SDS011;18656;50.580;11.392;2023-08-07T02:16:21;2.05;;;0.80;;
32152;SDS011;18656;50.580;11.392;2023-08-07T02:18:48;2.08;;;1.20;;
32152;SDS011;18656;50.580;11.392;2023-08-07T02:21:15;1.10;;;0.90;;
32152;SDS011;18656;50.580;11.392;2023-08-07T02:23:42;1.48;;;0.70;;
32152;SDS011;18656;50.580;11.392;2023-08-07T02:26:10;0.73;;;0.73;;
32152;SDS011;18656;50.580;11.392;2023-08-07T02:28:37;0.65;;;0.65;;
32152;SDS011;18656;50.580;11.392;2023-08-07T02:31:04;3.20;;;1.00;;
32152;SDS011;18656;50.580;11.392;2023-08-07T02:33:32;1.25;;;1.08;;
32152;SDS011;18656;50.580;11.392;2023-08-07T02:35:59;1.85;;;0.98;;
32152;SDS011;18656;50.580;11.392;2023-08-07T02:38:26;1.02;;;1.02;;
32152;SDS011;18656;50.580;11.392;2023-08-07T02:40:53;0.93;;;0.93;;
32152;SDS011;18656;50.580;11.392;2023-08-07T02:43:21;2.53;;;1.17;;
32152;SDS011;18656;50.580;11.392;2023-08-07T02:45:48;2.42;;;1.30;;
32152;SDS011;18656;50.580;11.392;2023-08-07T02:48:15;1.27;;;1.10;;
32152;SDS011;18656;50.580;11.392;2023-08-07T02:50:43;1.90;;;1.00;;
32152;SDS011;18656;50.580;11.392;2023-08-07T02:53:11;1.25;;;1.15;;
32152;SDS011;18656;50.580;11.392;2023-08-07T02:55:38;1.30;;;1.20;;
32152;SDS011;18656;50.580;11.392;2023-08-07T02:58:05;1.17;;;0.75;;
32152;SDS011;18656;50.580;11.392;2023-08-07T03:00:34;0.93;;;0.88;;
32152;SDS011;18656;50.580;11.392;2023-08-07T03:03:01;0.70;;;0.70;;
32152;SDS011;18656;50.580;11.392;2023-08-07T03:05:29;1.42;;;1.33;;
32152;SDS011;18656;50.580;11.392;2023-08-07T03:07:56;1.58;;;0.88;;
32152;SDS011;18656;50.580;11.392;2023-08-07T03:10:23;1.02;;;1.00;;
32152;SDS011;18656;50.580;11.392;2023-08-07T03:12:52;3.95;;;1.30;;
32152;SDS011;18656;50.580;11.392;2023-08-07T03:15:19;1.35;;;1.13;;
32152;SDS011;18656;50.580;11.392;2023-08-07T03:17:46;1.30;;;1.25;;
32152;SDS011;18656;50.580;11.392;2023-08-07T03:20:14;2.95;;;1.30;;
32152;SDS011;18656;50.580;11.392;2023-08-07T03:22:41;1.30;;;1.30;;
32152;SDS011;18656;50.580;11.392;2023-08-07T03:25:08;2.83;;;1.67;;
32152;SDS011;18656;50.580;11.392;2023-08-07T03:27:35;1.25;;;1.25;;
32152;SDS011;18656;50.580;11.392;2023-08-07T03:30:03;0.95;;;0.95;;
32152;SDS011;18656;50.580;11.392;2023-08-07T03:32:30;1.63;;;1.30;;
32152;SDS011;18656;50.580;11.392;2023-08-07T03:34:58;1.30;;;1.15;;
32152;SDS011;18656;50.580;11.392;2023-08-07T03:37:25;1.40;;;1.40;;
32152;SDS011;18656;50.580;11.392;2023-08-07T03:39:52;1.48;;;1.48;;
32152;SDS011;18656;50.580;11.392;2023-08-07T03:42:19;1.27;;;1.25;;
32152;SDS011;18656;50.580;11.392;2023-08-07T03:44:47;2.03;;;1.55;;
32152;SDS011;18656;50.580;11.392;2023-08-07T03:47:14;2.40;;;1.83;;
32152;SDS011;18656;50.580;11.392;2023-08-07T03:49:41;3.30;;;2.05;;
32152;SDS011;18656;50.580;11.392;2023-08-07T03:52:08;3.90;;;2.42;;
32152;SDS011;18656;50.580;11.392;2023-08-07T03:54:36;2.30;;;2.20;;
32152;SDS011;18656;50.580;11.392;2023-08-07T03:57:03;2.80;;;1.83;;
32152;SDS011;18656;50.580;11.392;2023-08-07T03:59:30;2.08;;;1.67;;
32152;SDS011;18656;50.580;11.392;2023-08-07T04:01:58;1.50;;;1.40;;
32152;SDS011;18656;50.580;11.392;2023-08-07T04:04:25;1.80;;;1.70;;
32152;SDS011;18656;50.580;11.392;2023-08-07T04:06:52;2.75;;;1.92;;
32152;SDS011;18656;50.580;11.392;2023-08-07T04:09:20;2.25;;;1.77;;
32152;SDS011;18656;50.580;11.392;2023-08-07T04:11:47;2.75;;;1.98;;
32152;SDS011;18656;50.580;11.392;2023-08-07T04:14:14;2.97;;;1.90;;
32152;SDS011;18656;50.580;11.392;2023-08-07T04:16:41;2.17;;;1.70;;
32152;SDS011;18656;50.580;11.392;2023-08-07T04:19:09;3.35;;;1.88;;
32152;SDS011;18656;50.580;11.392;2023-08-07T04:21:36;4.68;;;2.13;;
32152;SDS011;18656;50.580;11.392;2023-08-07T04:24:04;2.65;;;2.28;;
32152;SDS011;18656;50.580;11.392;2023-08-07T04:26:37;1.95;;;1.85;;
32152;SDS011;18656;50.580;11.392;2023-08-07T04:29:05;3.00;;;2.00;;
32152;SDS011;18656;50.580;11.392;2023-08-07T04:31:32;1.83;;;1.73;;
32152;SDS011;18656;50.580;11.392;2023-08-07T04:34:00;2.22;;;2.13;;
32152;SDS011;18656;50.580;11.392;2023-08-07T04:36:27;3.63;;;2.22;;
32152;SDS011;18656;50.580;11.392;2023-08-07T04:38:54;3.45;;;1.80;;
32152;SDS011;18656;50.580;11.392;2023-08-07T04:41:22;1.65;;;1.55;;
32152;SDS011;18656;50.580;11.392;2023-08-07T04:43:49;3.53;;;1.58;;
32152;SDS011;18656;50.580;11.392;2023-08-07T04:46:16;2.45;;;1.60;;
32152;SDS011;18656;50.580;11.392;2023-08-07T04:48:43;3.63;;;1.40;;
32152;SDS011;18656;50.580;11.392;2023-08-07T04:51:11;1.85;;;1.48;;
32152;SDS011;18656;50.580;11.392;2023-08-07T04:53:38;1.20;;;1.20;;
32152;SDS011;18656;50.580;11.392;2023-08-07T04:56:05;3.05;;;1.40;;
32152;SDS011;18656;50.580;11.392;2023-08-07T04:58:33;1.60;;;1.40;;
32152;SDS011;18656;50.580;11.392;2023-08-07T05:01:00;1.60;;;1.60;;
32152;SDS011;18656;50.580;11.392;2023-08-07T05:03:27;1.60;;;1.50;;
32152;SDS011;18656;50.580;11.392;2023-08-07T05:05:58;1.48;;;1.45;;
32152;SDS011;18656;50.580;11.392;2023-08-07T05:08:26;1.73;;;1.63;;
32152;SDS011;18656;50.580;11.392;2023-08-07T05:10:53;2.70;;;1.00;;
32152;SDS011;18656;50.580;11.392;2023-08-07T05:13:20;1.42;;;1.30;;
32152;SDS011;18656;50.580;11.392;2023-08-07T05:15:48;2.40;;;0.80;;
32152;SDS011;18656;50.580;11.392;2023-08-07T05:18:15;0.80;;;0.80;;
32152;SDS011;18656;50.580;11.392;2023-08-07T05:20:42;0.80;;;0.80;;
32152;SDS011;18656;50.580;11.392;2023-08-07T05:23:10;0.68;;;0.63;;
32152;SDS011;18656;50.580;11.392;2023-08-07T05:25:37;0.73;;;0.57;;
32152;SDS011;18656;50.580;11.392;2023-08-07T05:28:04;0.75;;;0.75;;
32152;SDS011;18656;50.580;11.392;2023-08-07T05:30:32;0.88;;;0.65;;
32152;SDS011;18656;50.580;11.392;2023-08-07T05:32:59;1.55;;;0.40;;
32152;SDS011;18656;50.580;11.392;2023-08-07T05:35:26;1.27;;;0.40;;
32152;SDS011;18656;50.580;11.392;2023-08-07T05:37:54;0.20;;;0.20;;
32152;SDS011;18656;50.580;11.392;2023-08-07T05:40:21;1.15;;;0.20;;
32152;SDS011;18656;50.580;11.392;2023-08-07T05:42:48;0.68;;;0.30;;
32152;SDS011;18656;50.580;11.392;2023-08-07T05:45:15;0.20;;;0.20;;
32152;SDS011;18656;50.580;11.392;2023-08-07T05:47:43;0.20;;;0.20;;
32152;SDS011;18656;50.580;11.392;2023-08-07T05:50:10;0.35;;;0.35;;
32152;SDS011;18656;50.580;11.392;2023-08-07T05:52:37;2.92;;;0.32;;
32152;SDS011;18656;50.580;11.392;2023-08-07T05:55:04;0.17;;;0.17;;
32152;SDS011;18656;50.580;11.392;2023-08-07T05:57:33;0.20;;;0.20;;
32152;SDS011;18656;50.580;11.392;2023-08-07T06:00:00;0.20;;;0.20;;
32152;SDS011;18656;50.580;11.392;2023-08-07T06:02:27;0.30;;;0.20;;
32152;SDS011;18656;50.580;11.392;2023-08-07T06:04:54;1.80;;;0.35;;
32152;SDS011;18656;50.580;11.392;2023-08-07T06:07:22;7.90;;;0.30;;
32152;SDS011;18656;50.580;11.392;2023-08-07T06:09:49;0.32;;;0.10;;
32152;SDS011;18656;50.580;11.392;2023-08-07T06:12:16;0.30;;;0.30;;
32152;SDS011;18656;50.580;11.392;2023-08-07T06:14:43;0.00;;;0.00;;
32152;SDS011;18656;50.580;11.392;2023-08-07T06:17:10;0.10;;;0.00;;
32152;SDS011;18656;50.580;11.392;2023-08-07T06:19:38;0.05;;;0.05;;
32152;SDS011;18656;50.580;11.392;2023-08-07T06:22:05;0.13;;;0.13;;
32152;SDS011;18656;50.580;11.392;2023-08-07T06:24:32;0.10;;;0.00;;
32152;SDS011;18656;50.580;11.392;2023-08-07T06:27:01;0.00;;;0.00;;
32152;SDS011;18656;50.580;11.392;2023-08-07T06:29:29;0.03;;;0.03;;
32152;SDS011;18656;50.580;11.392;2023-08-07T06:31:56;0.90;;;0.00;;
32152;SDS011;18656;50.580;11.392;2023-08-07T06:34:24;1.65;;;0.05;;
32152;SDS011;18656;50.580;11.392;2023-08-07T06:36:51;0.03;;;0.00;;
32152;SDS011;18656;50.580;11.392;2023-08-07T06:39:18;0.45;;;0.10;;
32152;SDS011;18656;50.580;11.392;2023-08-07T06:41:45;0.43;;;0.10;;
32152;SDS011;18656;50.580;11.392;2023-08-07T06:44:13;0.13;;;0.13;;
32152;SDS011;18656;50.580;11.392;2023-08-07T06:46:40;0.20;;;0.20;;
32152;SDS011;18656;50.580;11.392;2023-08-07T06:49:07;0.10;;;0.10;;
32152;SDS011;18656;50.580;11.392;2023-08-07T06:51:34;0.38;;;0.10;;
32152;SDS011;18656;50.580;11.392;2023-08-07T06:54:02;1.33;;;0.10;;
32152;SDS011;18656;50.580;11.392;2023-08-07T06:56:29;0.00;;;0.00;;
32152;SDS011;18656;50.580;11.392;2023-08-07T06:58:56;0.88;;;0.10;;
32152;SDS011;18656;50.580;11.392;2023-08-07T07:01:23;0.10;;;0.10;;
32152;SDS011;18656;50.580;11.392;2023-08-07T07:03:51;0.00;;;0.00;;
32152;SDS011;18656;50.580;11.392;2023-08-07T07:06:19;0.00;;;0.00;;
32152;SDS011;18656;50.580;11.392;2023-08-07T07:08:47;0.08;;;0.00;;
32152;SDS011;18656;50.580;11.392;2023-08-07T07:11:14;0.10;;;0.10;;
32152;SDS011;18656;50.580;11.392;2023-08-07T07:13:41;0.10;;;0.10;;
32152;SDS011;18656;50.580;11.392;2023-08-07T07:16:09;0.38;;;0.10;;
32152;SDS011;18656;50.580;11.392;2023-08-07T07:18:38;0.05;;;0.00;;
32152;SDS011;18656;50.580;11.392;2023-08-07T07:21:05;0.10;;;0.00;;
32152;SDS011;18656;50.580;11.392;2023-08-07T07:23:33;0.00;;;0.00;;
32152;SDS011;18656;50.580;11.392;2023-08-07T07:26:00;0.10;;;0.00;;
32152;SDS011;18656;50.580;11.392;2023-08-07T07:28:27;0.00;;;0.00;;
32152;SDS011;18656;50.580;11.392;2023-08-07T07:30:54;0.38;;;0.10;;
32152;SDS011;18656;50.580;11.392;2023-08-07T07:33:22;0.10;;;0.10;;
32152;SDS011;18656;50.580;11.392;2023-08-07T07:35:49;0.20;;;0.00;;
32152;SDS011;18656;50.580;11.392;2023-08-07T07:38:16;0.00;;;0.00;;
32152;SDS011;18656;50.580;11.392;2023-08-07T07:40:43;0.25;;;0.10;;
32152;SDS011;18656;50.580;11.392;2023-08-07T07:43:11;0.10;;;0.08;;
32152;SDS011;18656;50.580;11.392;2023-08-07T07:45:38;0.10;;;0.00;;
32152;SDS011;18656;50.580;11.392;2023-08-07T07:48:06;2.58;;;0.10;;
32152;SDS011;18656;50.580;11.392;2023-08-07T07:50:34;0.15;;;0.10;;
32152;SDS011;18656;50.580;11.392;2023-08-07T07:53:01;0.17;;;0.10;;
32152;SDS011;18656;50.580;11.392;2023-08-07T07:55:28;0.03;;;0.00;;
32152;SDS011;18656;50.580;11.392;2023-08-07T07:57:56;0.00;;;0.00;;
32152;SDS011;18656;50.580;11.392;2023-08-07T08:00:23;0.08;;;0.08;;
32152;SDS011;18656;50.580;11.392;2023-08-07T08:02:53;1.55;;;0.15;;
32152;SDS011;18656;50.580;11.392;2023-08-07T08:05:20;0.70;;;0.20;;
32152;SDS011;18656;50.580;11.392;2023-08-07T08:07:48;0.00;;;0.00;;
32152;SDS011;18656;50.580;11.392;2023-08-07T08:10:15;0.00;;;0.00;;
32152;SDS011;18656;50.580;11.392;2023-08-07T08:12:42;1.73;;;0.10;;
32152;SDS011;18656;50.580;11.392;2023-08-07T08:15:10;0.00;;;0.00;;
32152;SDS011;18656;50.580;11.392;2023-08-07T08:17:37;0.25;;;0.10;;
32152;SDS011;18656;50.580;11.392;2023-08-07T08:20:06;0.17;;;0.00;;
32152;SDS011;18656;50.580;11.392;2023-08-07T08:22:34;0.45;;;0.00;;
32152;SDS011;18656;50.580;11.392;2023-08-07T08:25:01;0.10;;;0.08;;
32152;SDS011;18656;50.580;11.392;2023-08-07T08:27:30;0.15;;;0.00;;
32152;SDS011;18656;50.580;11.392;2023-08-07T08:29:58;0.00;;;0.00;;
32152;SDS011;18656;50.580;11.392;2023-08-07T08:32:25;0.00;;;0.00;;
32152;SDS011;18656;50.580;11.392;2023-08-07T08:34:53;0.20;;;0.00;;
32152;SDS011;18656;50.580;11.392;2023-08-07T08:37:20;0.00;;;0.00;;
32152;SDS011;18656;50.580;11.392;2023-08-07T08:39:47;1.17;;;0.20;;
32152;SDS011;18656;50.580;11.392;2023-08-07T08:42:15;0.00;;;0.00;;
32152;SDS011;18656;50.580;11.392;2023-08-07T08:44:46;2.28;;;0.03;;
32152;SDS011;18656;50.580;11.392;2023-08-07T08:47:15;0.25;;;0.00;;
32152;SDS011;18656;50.580;11.392;2023-08-07T08:49:45;0.20;;;0.00;;
32152;SDS011;18656;50.580;11.392;2023-08-07T08:52:13;2.63;;;0.00;;
32152;SDS011;18656;50.580;11.392;2023-08-07T08:54:42;0.80;;;0.00;;
32152;SDS011;18656;50.580;11.392;2023-08-07T08:57:10;0.10;;;0.05;;
32152;SDS011;18656;50.580;11.392;2023-08-07T08:59:39;0.00;;;0.00;;
32152;SDS011;18656;50.580;11.392;2023-08-07T09:02:07;0.30;;;0.00;;
32152;SDS011;18656;50.580;11.392;2023-08-07T09:04:35;11.40;;;7.35;;
32152;SDS011;18656;50.580;11.392;2023-08-07T09:07:02;29.15;;;14.25;;
32152;SDS011;18656;50.580;11.392;2023-08-07T09:09:29;13.25;;;7.95;;
32152;SDS011;18656;50.580;11.392;2023-08-07T09:11:57;0.28;;;0.20;;
32152;SDS011;18656;50.580;11.392;2023-08-07T09:14:26;0.00;;;0.00;;
32152;SDS011;18656;50.580;11.392;2023-08-07T09:16:57;0.40;;;0.10;;
32152;SDS011;18656;50.580;11.392;2023-08-07T09:19:25;6.10;;;3.55;;
32152;SDS011;18656;50.580;11.392;2023-08-07T09:21:53;4.80;;;3.95;;
32152;SDS011;18656;50.580;11.392;2023-08-07T09:24:20;0.75;;;0.73;;
32152;SDS011;18656;50.580;11.392;2023-08-07T09:26:50;0.13;;;0.13;;
32152;SDS011;18656;50.580;11.392;2023-08-07T09:29:20;0.38;;;0.00;;
32152;SDS011;18656;50.580;11.392;2023-08-07T09:31:47;1.13;;;1.02;;
32152;SDS011;18656;50.580;11.392;2023-08-07T09:34:15;1.00;;;0.10;;
32152;SDS011;18656;50.580;11.392;2023-08-07T09:36:46;6.35;;;5.85;;
32152;SDS011;18656;50.580;11.392;2023-08-07T09:39:13;0.98;;;0.98;;
32152;SDS011;18656;50.580;11.392;2023-08-07T09:41:41;0.22;;;0.20;;
32152;SDS011;18656;50.580;11.392;2023-08-07T09:44:09;0.43;;;0.43;;
32152;SDS011;18656;50.580;11.392;2023-08-07T09:46:40;1.77;;;0.40;;
32152;SDS011;18656;50.580;11.392;2023-08-07T09:49:08;1.05;;;1.05;;
32152;SDS011;18656;50.580;11.392;2023-08-07T09:51:42;0.10;;;0.10;;
32152;SDS011;18656;50.580;11.392;2023-08-07T09:54:09;0.00;;;0.00;;
32152;SDS011;18656;50.580;11.392;2023-08-07T09:56:38;0.17;;;0.00;;
32152;SDS011;18656;50.580;11.392;2023-08-07T09:59:05;0.00;;;0.00;;
32152;SDS011;18656;50.580;11.392;2023-08-07T10:01:32;1.25;;;0.10;;
32152;SDS011;18656;50.580;11.392;2023-08-07T10:04:00;0.25;;;0.10;;
32152;SDS011;18656;50.580;11.392;2023-08-07T10:06:28;0.75;;;0.75;;
32152;SDS011;18656;50.580;11.392;2023-08-07T10:08:55;0.95;;;0.40;;
32152;SDS011;18656;50.580;11.392;2023-08-07T10:11:23;1.60;;;1.60;;
32152;SDS011;18656;50.580;11.392;2023-08-07T10:13:50;0.20;;;0.20;;
32152;SDS011;18656;50.580;11.392;2023-08-07T10:16:17;0.75;;;0.40;;
32152;SDS011;18656;50.580;11.392;2023-08-07T10:18:45;0.17;;;0.17;;
32152;SDS011;18656;50.580;11.392;2023-08-07T10:21:12;0.80;;;0.03;;
32152;SDS011;18656;50.580;11.392;2023-08-07T10:23:39;0.20;;;0.20;;
32152;SDS011;18656;50.580;11.392;2023-08-07T10:26:08;0.17;;;0.10;;
32152;SDS011;18656;50.580;11.392;2023-08-07T10:28:36;1.27;;;0.10;;
32152;SDS011;18656;50.580;11.392;2023-08-07T10:31:04;0.00;;;0.00;;
32152;SDS011;18656;50.580;11.392;2023-08-07T10:33:33;0.00;;;0.00;;
32152;SDS011;18656;50.580;11.392;2023-08-07T10:36:01;0.00;;;0.00;;
32152;SDS011;18656;50.580;11.392;2023-08-07T10:41:14;0.00;;;0.00;;
32152;SDS011;18656;50.580;11.392;2023-08-07T10:43:44;0.10;;;0.10;;
32152;SDS011;18656;50.580;11.392;2023-08-07T10:46:12;0.10;;;0.10;;
32152;SDS011;18656;50.580;11.392;2023-08-07T10:48:40;0.55;;;0.35;;
32152;SDS011;18656;50.580;11.392;2023-08-07T10:51:09;0.47;;;0.20;;
32152;SDS011;18656;50.580;11.392;2023-08-07T10:53:46;0.10;;;0.10;;
32152;SDS011;18656;50.580;11.392;2023-08-07T10:59:11;0.10;;;0.10;;
32152;SDS011;18656;50.580;11.392;2023-08-07T11:04:10;0.10;;;0.10;;
32152;SDS011;18656;50.580;11.392;2023-08-07T11:06:38;1.17;;;0.08;;
32152;SDS011;18656;50.580;11.392;2023-08-07T11:09:06;0.68;;;0.20;;
32152;SDS011;18656;50.580;11.392;2023-08-07T11:11:53;3.55;;;0.20;;
32152;SDS011;18656;50.580;11.392;2023-08-07T11:14:20;1.90;;;0.20;;
32152;SDS011;18656;50.580;11.392;2023-08-07T11:16:48;1.63;;;0.10;;
32152;SDS011;18656;50.580;11.392;2023-08-07T11:19:16;0.10;;;0.00;;
32152;SDS011;18656;50.580;11.392;2023-08-07T11:21:43;0.30;;;0.00;;
32152;SDS011;18656;50.580;11.392;2023-08-07T11:24:14;0.00;;;0.00;;
32152;SDS011;18656;50.580;11.392;2023-08-07T11:26:45;0.25;;;0.10;;
32152;SDS011;18656;50.580;11.392;2023-08-07T11:29:16;0.55;;;0.00;;
32152;SDS011;18656;50.580;11.392;2023-08-07T11:31:43;0.10;;;0.05;;
32152;SDS011;18656;50.580;11.392;2023-08-07T11:34:11;0.00;;;0.00;;
32152;SDS011;18656;50.580;11.392;2023-08-07T11:36:41;0.03;;;0.03;;
32152;SDS011;18656;50.580;11.392;2023-08-07T11:39:09;0.20;;;0.20;;
32152;SDS011;18656;50.580;11.392;2023-08-07T11:41:36;0.63;;;0.10;;
32152;SDS011;18656;50.580;11.392;2023-08-07T11:44:04;0.00;;;0.00;;
32152;SDS011;18656;50.580;11.392;2023-08-07T11:46:31;0.10;;;0.10;;
32152;SDS011;18656;50.580;11.392;2023-08-07T11:48:58;0.10;;;0.10;;
32152;SDS011;18656;50.580;11.392;2023-08-07T11:51:26;0.00;;;0.00;;
32152;SDS011;18656;50.580;11.392;2023-08-07T11:53:53;0.00;;;0.00;;
32152;SDS011;18656;50.580;11.392;2023-08-07T11:56:22;0.00;;;0.00;;
32152;SDS011;18656;50.580;11.392;2023-08-07T11:58:50;0.30;;;0.10;;
32152;SDS011;18656;50.580;11.392;2023-08-07T12:01:23;1.27;;;0.43;;
32152;SDS011;18656;50.580;11.392;2023-08-07T12:03:51;0.05;;;0.03;;
32152;SDS011;18656;50.580;11.392;2023-08-07T12:06:20;1.85;;;0.10;;
32152;SDS011;18656;50.580;11.392;2023-08-07T12:08:53;0.20;;;0.20;;
32152;SDS011;18656;50.580;11.392;2023-08-07T12:11:20;0.32;;;0.13;;
32152;SDS011;18656;50.580;11.392;2023-08-07T12:13:48;0.60;;;0.00;;
32152;SDS011;18656;50.580;11.392;2023-08-07T12:16:15;0.10;;;0.10;;
32152;SDS011;18656;50.580;11.392;2023-08-07T12:18:47;1.83;;;0.10;;
32152;SDS011;18656;50.580;11.392;2023-08-07T12:21:15;1.88;;;0.15;;
32152;SDS011;18656;50.580;11.392;2023-08-07T12:23:45;0.28;;;0.10;;
32152;SDS011;18656;50.580;11.392;2023-08-07T12:26:15;0.47;;;0.40;;
32152;SDS011;18656;50.580;11.392;2023-08-07T12:28:42;0.50;;;0.50;;
32152;SDS011;18656;50.580;11.392;2023-08-07T12:31:10;0.20;;;0.20;;
32152;SDS011;18656;50.580;11.392;2023-08-07T12:33:38;1.77;;;0.20;;
32152;SDS011;18656;50.580;11.392;2023-08-07T12:36:05;1.17;;;0.10;;
32152;SDS011;18656;50.580;11.392;2023-08-07T12:38:46;2.15;;;0.20;;
32152;SDS011;18656;50.580;11.392;2023-08-07T12:41:13;0.30;;;0.30;;
32152;SDS011;18656;50.580;11.392;2023-08-07T12:43:44;1.67;;;0.38;;
32152;SDS011;18656;50.580;11.392;2023-08-07T12:46:11;2.00;;;0.40;;
32152;SDS011;18656;50.580;11.392;2023-08-07T12:48:41;0.30;;;0.30;;
32152;SDS011;18656;50.580;11.392;2023-08-07T12:51:08;2.20;;;0.45;;
32152;SDS011;18656;50.580;11.392;2023-08-07T12:53:35;1.17;;;0.38;;
32152;SDS011;18656;50.580;11.392;2023-08-07T12:56:03;0.70;;;0.40;;
32152;SDS011;18656;50.580;11.392;2023-08-07T12:58:31;0.30;;;0.30;;
32152;SDS011;18656;50.580;11.392;2023-08-07T13:01:00;1.67;;;0.45;;
32152;SDS011;18656;50.580;11.392;2023-08-07T13:03:27;1.55;;;0.30;;
32152;SDS011;18656;50.580;11.392;2023-08-07T13:05:54;0.20;;;0.20;;
32152;SDS011;18656;50.580;11.392;2023-08-07T13:08:22;1.05;;;0.40;;
32152;SDS011;18656;50.580;11.392;2023-08-07T13:10:49;0.40;;;0.30;;
32152;SDS011;18656;50.580;11.392;2023-08-07T13:13:16;2.30;;;0.47;;
32152;SDS011;18656;50.580;11.392;2023-08-07T13:15:43;0.30;;;0.30;;
32152;SDS011;18656;50.580;11.392;2023-08-07T13:18:11;1.30;;;0.32;;
32152;SDS011;18656;50.580;11.392;2023-08-07T13:20:40;0.98;;;0.25;;
32152;SDS011;18656;50.580;11.392;2023-08-07T13:23:07;1.02;;;0.30;;
32152;SDS011;18656;50.580;11.392;2023-08-07T13:25:34;1.88;;;0.15;;
32152;SDS011;18656;50.580;11.392;2023-08-07T13:28:02;0.30;;;0.20;;
32152;SDS011;18656;50.580;11.392;2023-08-07T13:30:33;2.20;;;0.35;;
32152;SDS011;18656;50.580;11.392;2023-08-07T13:33:03;0.40;;;0.20;;
32152;SDS011;18656;50.580;11.392;2023-08-07T13:35:30;1.88;;;0.20;;
32152;SDS011;18656;50.580;11.392;2023-08-07T13:37:59;8.85;;;1.35;;
32152;SDS011;18656;50.580;11.392;2023-08-07T13:40:31;2.00;;;0.20;;
32152;SDS011;18656;50.580;11.392;2023-08-07T13:42:58;0.10;;;0.10;;
32152;SDS011;18656;50.580;11.392;2023-08-07T13:45:29;0.47;;;0.20;;
32152;SDS011;18656;50.580;11.392;2023-08-07T13:47:56;0.10;;;0.10;;
32152;SDS011;18656;50.580;11.392;2023-08-07T13:50:23;1.58;;;0.10;;
32152;SDS011;18656;50.580;11.392;2023-08-07T13:52:51;0.10;;;0.10;;
32152;SDS011;18656;50.580;11.392;2023-08-07T13:55:38;0.20;;;0.15;;
32152;SDS011;18656;50.580;11.392;2023-08-07T13:58:05;0.00;;;0.00;;
32152;SDS011;18656;50.580;11.392;2023-08-07T14:00:32;0.60;;;0.10;;
32152;SDS011;18656;50.580;11.392;2023-08-07T14:03:01;1.55;;;0.10;;
32152;SDS011;18656;50.580;11.392;2023-08-07T14:05:28;0.30;;;0.10;;
32152;SDS011;18656;50.580;11.392;2023-08-07T14:07:55;1.27;;;0.13;;
32152;SDS011;18656;50.580;11.392;2023-08-07T14:10:23;0.85;;;0.20;;
32152;SDS011;18656;50.580;11.392;2023-08-07T14:12:51;4.72;;;0.20;;
32152;SDS011;18656;50.580;11.392;2023-08-07T14:15:18;0.60;;;0.28;;
32152;SDS011;18656;50.580;11.392;2023-08-07T14:17:45;0.95;;;0.20;;
32152;SDS011;18656;50.580;11.392;2023-08-07T14:20:13;0.10;;;0.00;;
32152;SDS011;18656;50.580;11.392;2023-08-07T14:22:40;0.32;;;0.10;;
32152;SDS011;18656;50.580;11.392;2023-08-07T14:25:08;1.70;;;0.40;;
32152;SDS011;18656;50.580;11.392;2023-08-07T14:27:35;0.65;;;0.10;;
32152;SDS011;18656;50.580;11.392;2023-08-07T14:30:02;2.20;;;0.28;;
32152;SDS011;18656;50.580;11.392;2023-08-07T14:32:30;0.40;;;0.10;;
32152;SDS011;18656;50.580;11.392;2023-08-07T14:34:57;3.05;;;0.20;;
32152;SDS011;18656;50.580;11.392;2023-08-07T14:37:24;0.10;;;0.10;;
32152;SDS011;18656;50.580;11.392;2023-08-07T14:39:52;0.00;;;0.00;;
32152;SDS011;18656;50.580;11.392;2023-08-07T14:42:19;0.10;;;0.10;;
32152;SDS011;18656;50.580;11.392;2023-08-07T14:44:46;0.22;;;0.20;;
32152;SDS011;18656;50.580;11.392;2023-08-07T14:47:14;0.13;;;0.10;;
32152;SDS011;18656;50.580;11.392;2023-08-07T14:49:41;0.15;;;0.10;;